createdAt,value
2019-03-13T00:01:15.137Z,99092.56
2019-03-13T00:03:43.749Z,99089.06
2019-03-13T00:06:13.568Z,99095.09
2019-03-13T00:08:42.005Z,99093.80
2019-03-13T00:11:10.509Z,99093.80
2019-03-13T00:13:40.125Z,99095.09
2019-03-13T00:16:08.561Z,99091.59
2019-03-13T00:18:37.200Z,99093.72
2019-03-13T00:21:05.720Z,99081.11
2019-03-13T00:23:34.160Z,99083.19
2019-03-13T00:26:02.683Z,99074.88
2019-03-13T00:28:31.217Z,99046.97
2019-03-13T00:30:59.671Z,99046.97
2019-03-13T00:33:28.833Z,99050.69
2019-03-13T00:35:57.256Z,99036.73
2019-03-13T00:38:25.767Z,99021.06
2019-03-13T00:40:54.445Z,99026.69
2019-03-13T00:43:23.093Z,99012.73
2019-03-13T00:45:51.684Z,99009.27
2019-03-13T00:48:20.372Z,99009.27
2019-03-13T00:50:48.841Z,99009.31
2019-03-13T00:53:17.345Z,99002.83
2019-03-13T00:55:46.018Z,99005.97
2019-03-13T00:58:14.483Z,99005.97
2019-03-13T01:00:44.553Z,99007.39
2019-03-13T01:03:33.794Z,98999.60
2019-03-13T01:06:03.867Z,98991.41
2019-03-13T01:08:32.430Z,98994.67
2019-03-13T01:11:00.950Z,98994.67
2019-03-13T01:13:29.504Z,98990.47
2019-03-13T01:15:58.109Z,98988.84
2019-03-13T01:18:26.611Z,98980.28
2019-03-13T01:20:55.114Z,98978.24
2019-03-13T01:23:23.591Z,98976.23
2019-03-13T01:25:52.297Z,98977.70
2019-03-13T01:28:20.729Z,98975.62
2019-03-13T01:30:50.812Z,98976.15
2019-03-13T01:33:20.998Z,98980.59
2019-03-13T01:35:51.084Z,98971.53
2019-03-13T01:38:19.529Z,98968.92
2019-03-13T01:40:48.210Z,98972.43
2019-03-13T01:43:16.646Z,98965.50
2019-03-13T01:45:45.592Z,98965.50
2019-03-13T01:48:14.205Z,98962.97
2019-03-13T01:50:42.644Z,98954.78
2019-03-13T01:53:11.116Z,98953.52
2019-03-13T01:55:39.754Z,98943.12
2019-03-13T01:58:10.149Z,98942.27
2019-03-13T02:00:38.651Z,98940.95
2019-03-13T02:03:07.255Z,98933.55
2019-03-13T02:05:35.780Z,98931.83
2019-03-13T02:08:04.288Z,98923.11
2019-03-13T02:10:32.926Z,98925.72
2019-03-13T02:13:01.393Z,98920.46
2019-03-13T02:15:29.896Z,98903.87
2019-03-13T02:17:58.398Z,98895.97
2019-03-13T02:20:26.837Z,98888.95
2019-03-13T02:22:55.427Z,98886.75
2019-03-13T02:25:24.049Z,98878.84
2019-03-13T02:27:52.552Z,98867.52
2019-03-13T02:30:23.104Z,98866.09
2019-03-13T02:32:51.862Z,98851.25
2019-03-13T02:35:21.354Z,98844.14
2019-03-13T02:37:49.794Z,98833.63
2019-03-13T02:40:18.336Z,98840.05
2019-03-13T02:42:46.934Z,98833.00
2019-03-13T02:45:16.007Z,98840.34
2019-03-13T02:47:45.384Z,98839.89
2019-03-13T02:50:16.138Z,98839.35
2019-03-13T02:52:44.625Z,98807.00
2019-03-13T02:55:13.920Z,98807.00
2019-03-13T02:57:42.421Z,98807.76
2019-03-13T03:00:14.920Z,98791.16
2019-03-13T03:02:45.146Z,98801.91
2019-03-13T03:05:13.947Z,98816.58
2019-03-13T03:07:42.423Z,98814.02
2019-03-13T03:10:12.948Z,98816.53
2019-03-13T03:12:41.622Z,98811.67
2019-03-13T03:15:13.145Z,98800.78
2019-03-13T03:17:41.673Z,98779.84
2019-03-13T03:20:18.598Z,98779.84
2019-03-13T03:22:47.107Z,98770.30
2019-03-13T03:25:17.037Z,98763.06
2019-03-13T03:27:45.626Z,98755.19
2019-03-13T03:30:20.026Z,98747.05
2019-03-13T03:32:48.574Z,98747.05
2019-03-13T03:35:17.302Z,98742.78
2019-03-13T03:37:45.956Z,98739.77
2019-03-13T03:40:22.493Z,98731.66
2019-03-13T03:42:49.364Z,98738.86
2019-03-13T03:45:18.094Z,98746.70
2019-03-13T03:47:46.702Z,98731.89
2019-03-13T03:50:17.409Z,98724.91
2019-03-13T03:52:46.109Z,98737.47
2019-03-13T03:55:16.388Z,98753.08
2019-03-13T03:57:45.036Z,98736.52
2019-03-13T04:00:17.796Z,98736.52
2019-03-13T04:02:46.346Z,98725.42
2019-03-13T04:05:15.314Z,98714.34
2019-03-13T04:07:43.824Z,98704.95
2019-03-13T04:10:16.007Z,98716.92
2019-03-13T04:12:44.826Z,98720.23
2019-03-13T04:15:15.267Z,98720.23
2019-03-13T04:17:44.044Z,98696.58
2019-03-13T04:20:17.022Z,98705.97
2019-03-13T04:22:45.444Z,98712.66
2019-03-13T04:25:23.059Z,98694.53
2019-03-13T04:27:51.792Z,98705.97
2019-03-13T04:30:21.141Z,98700.64
2019-03-13T04:32:49.742Z,98703.59
2019-03-13T04:35:18.182Z,98707.38
2019-03-13T04:37:46.611Z,98702.55
2019-03-13T04:40:15.292Z,98703.70
2019-03-13T04:42:43.872Z,98696.55
2019-03-13T04:45:12.929Z,98701.22
2019-03-13T04:47:41.531Z,98698.06
2019-03-13T04:50:11.815Z,98694.03
2019-03-13T04:52:40.260Z,98700.46
2019-03-13T04:55:10.551Z,98697.84
2019-03-13T04:57:39.065Z,98697.39
2019-03-13T05:00:17.795Z,98699.10
2019-03-13T05:02:46.375Z,98705.13
2019-03-13T05:05:37.689Z,98695.88
2019-03-13T05:08:06.330Z,98709.25
2019-03-13T05:10:34.802Z,98700.91
2019-03-13T05:13:03.491Z,98689.93
2019-03-13T05:15:32.083Z,98682.55
2019-03-13T05:18:00.594Z,98694.25
2019-03-13T05:20:29.138Z,98691.07
2019-03-13T05:22:57.592Z,98697.95
2019-03-13T05:25:26.052Z,98696.93
2019-03-13T05:27:54.553Z,98698.09
2019-03-13T05:30:23.141Z,98694.00
2019-03-13T05:32:51.588Z,98691.73
2019-03-13T05:35:20.222Z,98695.94
2019-03-13T05:37:48.689Z,98699.34
2019-03-13T05:40:17.209Z,98696.19
2019-03-13T05:42:45.903Z,98710.46
2019-03-13T05:45:14.427Z,98729.57
2019-03-13T05:47:44.828Z,98731.62
2019-03-13T05:50:13.592Z,98741.12
2019-03-13T05:52:42.049Z,98742.31
2019-03-13T05:55:10.680Z,98748.70
2019-03-13T05:57:39.357Z,98757.23
2019-03-13T06:00:10.150Z,98764.46
2019-03-13T06:02:38.663Z,98774.36
2019-03-13T06:05:08.660Z,98780.75
2019-03-13T06:07:37.189Z,98794.58
2019-03-13T06:10:09.032Z,98796.97
2019-03-13T06:12:38.118Z,98800.98
2019-03-13T06:15:09.689Z,98812.87
2019-03-13T06:17:38.143Z,98813.15
2019-03-13T06:20:10.725Z,98834.89
2019-03-13T06:22:39.358Z,98838.95
2019-03-13T06:25:10.177Z,98834.11
2019-03-13T06:27:39.615Z,98835.77
2019-03-13T06:30:19.064Z,98825.17
2019-03-13T06:32:47.764Z,98846.02
2019-03-13T06:35:17.297Z,98849.02
2019-03-13T06:37:45.814Z,98860.97
2019-03-13T06:40:20.366Z,98866.43
2019-03-13T06:42:48.911Z,98851.72
2019-03-13T06:45:17.667Z,98855.47
2019-03-13T06:47:46.354Z,98842.86
2019-03-13T06:50:23.956Z,98863.44
2019-03-13T06:52:52.489Z,98873.34
2019-03-13T06:55:21.061Z,98863.95
2019-03-13T06:57:50.270Z,98869.14
2019-03-13T07:00:30.970Z,98866.85
2019-03-13T07:03:17.187Z,98861.87
2019-03-13T07:06:03.594Z,98858.11
2019-03-13T07:08:33.701Z,98854.63
2019-03-13T07:11:06.482Z,98853.22
2019-03-13T07:13:42.366Z,98853.22
2019-03-13T07:16:15.470Z,98861.02
2019-03-13T07:19:02.065Z,98873.64
2019-03-13T07:21:38.167Z,98875.34
2019-03-13T07:24:26.315Z,98879.38
2019-03-13T07:26:56.408Z,98894.17
2019-03-13T07:29:32.460Z,98897.14
2019-03-13T07:32:08.375Z,98901.11
2019-03-13T07:34:55.030Z,98902.63
2019-03-13T07:37:25.112Z,98915.47
2019-03-13T07:40:10.085Z,98911.33
2019-03-13T07:42:45.870Z,98918.87
2019-03-13T07:45:34.573Z,98914.66
2019-03-13T07:48:13.589Z,98912.95
2019-03-13T07:50:55.813Z,98920.39
2019-03-13T07:53:25.916Z,98924.66
2019-03-13T07:56:11.665Z,98927.63
2019-03-13T07:59:00.051Z,98922.65
2019-03-13T08:01:41.981Z,98924.97
2019-03-13T08:04:30.099Z,98924.61
2019-03-13T08:07:06.156Z,98923.41
2019-03-13T08:09:36.257Z,98925.80
2019-03-13T08:12:15.818Z,98925.58
2019-03-13T08:15:01.922Z,98924.19
2019-03-13T08:17:38.178Z,98937.48
2019-03-13T08:20:17.089Z,98932.50
2019-03-13T08:22:59.292Z,98932.61
2019-03-13T08:25:34.970Z,98943.63
2019-03-13T08:28:05.141Z,98942.93
2019-03-13T08:30:35.227Z,98948.05
2019-03-13T08:33:08.091Z,98949.75
2019-03-13T08:35:50.674Z,98960.64
2019-03-13T08:38:23.587Z,98956.47
2019-03-13T08:41:13.723Z,98949.13
2019-03-13T08:43:59.862Z,98951.82
2019-03-13T08:46:30.169Z,98954.63
2019-03-13T08:49:00.264Z,98950.59
2019-03-13T08:51:30.386Z,98944.09
2019-03-13T08:54:09.710Z,98968.62
2019-03-13T08:56:45.725Z,98950.75
2019-03-13T08:59:19.100Z,98955.56
2019-03-13T09:01:53.789Z,98957.98
2019-03-13T09:04:41.983Z,98956.02
2019-03-13T09:07:28.668Z,98985.09
2019-03-13T09:10:04.741Z,98977.27
2019-03-13T09:12:40.900Z,98968.91
2019-03-13T09:15:14.687Z,98970.66
2019-03-13T09:17:50.790Z,98978.34
2019-03-13T09:20:24.022Z,98966.61
2019-03-13T09:23:00.057Z,98986.80
2019-03-13T09:25:30.314Z,98979.02
2019-03-13T09:28:18.451Z,98990.70
2019-03-13T09:31:06.577Z,98969.20
2019-03-13T09:33:42.789Z,98983.78
2019-03-13T09:36:15.851Z,98996.61
2019-03-13T09:38:58.194Z,98996.44
2019-03-13T09:41:28.431Z,99000.77
2019-03-13T09:44:10.695Z,99005.36
2019-03-13T09:46:43.614Z,99005.29
2019-03-13T09:49:25.531Z,99009.22
2019-03-13T09:52:04.374Z,98996.30
2019-03-13T09:54:49.740Z,98983.53
2019-03-13T09:57:36.552Z,99009.87
2019-03-13T10:00:27.267Z,99016.66
2019-03-13T10:03:03.390Z,99006.85
2019-03-13T10:05:45.827Z,99003.08
2019-03-13T10:08:16.068Z,99009.22
2019-03-13T10:10:46.185Z,99003.89
2019-03-13T10:13:31.219Z,99021.16
2019-03-13T10:16:03.960Z,99024.72
2019-03-13T10:18:34.142Z,99028.77
2019-03-13T10:21:07.117Z,99014.84
2019-03-13T10:23:40.013Z,99024.70
2019-03-13T10:26:28.544Z,99014.10
2019-03-13T10:28:58.714Z,99010.31
2019-03-13T10:31:37.942Z,99025.27
2019-03-13T10:34:15.013Z,99041.22
2019-03-13T10:36:50.385Z,99023.90
2019-03-13T10:39:28.428Z,99016.83
2019-03-13T10:42:01.268Z,99014.05
2019-03-13T10:44:31.432Z,99033.41
2019-03-13T10:47:17.833Z,99041.17
2019-03-13T10:49:47.996Z,99038.05
2019-03-13T10:52:33.423Z,99025.90
2019-03-13T10:55:03.601Z,99024.20
2019-03-13T10:57:36.379Z,99027.83
2019-03-13T11:00:18.431Z,99036.19
2019-03-13T11:02:54.023Z,99027.61
2019-03-13T11:05:27.704Z,99037.92
2019-03-13T11:08:00.728Z,99044.95
2019-03-13T11:10:49.308Z,99020.78
2019-03-13T11:13:25.744Z,99029.69
2019-03-13T11:15:58.442Z,99039.21
2019-03-13T11:18:37.390Z,99040.20
2019-03-13T11:21:19.691Z,99043.66
2019-03-13T11:23:52.433Z,99026.63
2019-03-13T11:26:22.519Z,99030.89
2019-03-13T11:31:51.107Z,99039.77
2019-03-13T11:34:24.216Z,99023.95
2019-03-13T11:37:12.512Z,99034.78
2019-03-13T11:40:02.579Z,99020.34
2019-03-13T11:42:32.742Z,99020.04
2019-03-13T11:45:14.577Z,99017.56
2019-03-13T11:47:47.479Z,99022.69
2019-03-13T11:50:20.377Z,99008.16
2019-03-13T11:52:53.174Z,99013.81
2019-03-13T11:55:25.834Z,99008.61
2019-03-13T11:58:12.439Z,99008.98
2019-03-13T12:01:01.392Z,99012.06
2019-03-13T12:03:37.346Z,99012.00
2019-03-13T12:06:08.171Z,99016.01
2019-03-13T12:08:54.717Z,98991.62
2019-03-13T12:11:24.983Z,99005.67
2019-03-13T12:14:10.300Z,98983.84
2019-03-13T12:16:49.612Z,98991.60
2019-03-13T12:19:36.323Z,98963.34
2019-03-13T12:22:09.420Z,98961.66
2019-03-13T12:24:51.826Z,98968.19
2019-03-13T12:27:39.994Z,98966.23
2019-03-13T12:30:24.289Z,98942.69
2019-03-13T12:33:11.632Z,98956.55
2019-03-13T12:35:47.807Z,98957.48
2019-03-13T12:38:20.968Z,98967.09
2019-03-13T12:40:51.068Z,98949.09
2019-03-13T12:43:27.118Z,98954.66
2019-03-13T12:46:05.856Z,98957.08
2019-03-13T12:48:36.035Z,98951.73
2019-03-13T12:51:21.211Z,98939.02
2019-03-13T12:53:53.999Z,98937.41
2019-03-13T12:56:30.285Z,98923.44
2019-03-13T12:59:06.352Z,98907.82
2019-03-13T13:01:45.426Z,98908.64
2019-03-13T13:04:31.784Z,98895.70
2019-03-13T13:07:07.814Z,98896.70
2019-03-13T13:09:54.420Z,98903.37
2019-03-13T13:12:24.519Z,98899.14
2019-03-13T13:14:57.223Z,98899.59
2019-03-13T13:17:42.416Z,98896.83
2019-03-13T13:20:14.816Z,98901.88
2019-03-13T13:22:43.278Z,98910.80
2019-03-13T13:25:12.053Z,98906.48
2019-03-13T13:27:40.521Z,98906.55
2019-03-13T13:30:16.757Z,98902.27
2019-03-13T13:32:45.400Z,98888.75
2019-03-13T13:35:13.993Z,98898.82
2019-03-13T13:37:42.440Z,98901.42
2019-03-13T13:40:16.090Z,98889.94
2019-03-13T13:42:44.568Z,98888.42
2019-03-13T13:45:34.761Z,98885.81
2019-03-13T13:48:03.303Z,98884.50
2019-03-13T13:50:31.767Z,98886.94
2019-03-13T13:53:00.526Z,98893.66
2019-03-13T13:55:29.024Z,98896.29
2019-03-13T13:57:57.548Z,98902.69
2019-03-13T14:00:26.171Z,98903.84
2019-03-13T14:02:54.627Z,98903.93
2019-03-13T14:05:23.170Z,98899.44
2019-03-13T14:07:52.627Z,98903.30
2019-03-13T14:10:21.176Z,98901.49
2019-03-13T14:12:49.651Z,98902.52
2019-03-13T14:15:18.389Z,98905.77
2019-03-13T14:17:46.918Z,98901.70
2019-03-13T14:20:15.924Z,98903.95
2019-03-13T14:22:44.501Z,98909.47
2019-03-13T14:25:14.671Z,98903.43
2019-03-13T14:27:43.192Z,98905.16
2019-03-13T14:30:19.870Z,98899.55
2019-03-13T14:32:48.425Z,98896.09
2019-03-13T14:35:16.954Z,98904.51
2019-03-13T14:37:45.624Z,98902.60
2019-03-13T14:40:18.911Z,98900.05
2019-03-13T14:42:47.587Z,98898.84
2019-03-13T14:45:18.321Z,98890.69
2019-03-13T14:47:46.777Z,98898.16
2019-03-13T14:50:17.456Z,98900.14
2019-03-13T14:52:45.987Z,98899.77
2019-03-13T14:55:16.030Z,98903.73
2019-03-13T14:57:44.748Z,98898.42
2019-03-13T15:00:16.437Z,98893.14
2019-03-13T15:02:45.065Z,98891.81
2019-03-13T15:05:13.967Z,98898.42
2019-03-13T15:07:42.794Z,98892.55
2019-03-13T15:10:16.934Z,98889.33
2019-03-13T15:12:45.470Z,98886.87
2019-03-13T15:15:15.830Z,98896.98
2019-03-13T15:17:44.372Z,98891.78
2019-03-13T15:20:15.184Z,98888.08
2019-03-13T15:22:43.716Z,98888.63
2019-03-13T15:25:13.817Z,98886.38
2019-03-13T15:27:42.417Z,98883.95
2019-03-13T15:30:25.518Z,98895.23
2019-03-13T15:32:54.059Z,98885.44
2019-03-13T15:35:22.649Z,98892.42
2019-03-13T15:37:51.240Z,98877.44
2019-03-13T15:40:20.355Z,98875.13
2019-03-13T15:42:49.387Z,98886.25
2019-03-13T15:45:27.044Z,98883.66
2019-03-13T15:47:55.638Z,98888.00
2019-03-13T15:50:24.177Z,98883.39
2019-03-13T15:52:52.899Z,98885.82
2019-03-13T15:55:21.497Z,98886.08
2019-03-13T15:57:50.062Z,98884.08
2019-03-13T16:00:29.697Z,98882.75
2019-03-13T16:02:58.286Z,98878.63
2019-03-13T16:05:26.752Z,98881.53
2019-03-13T16:07:55.395Z,98884.08
2019-03-13T16:10:24.923Z,98880.89
2019-03-13T16:12:55.612Z,98880.52
2019-03-13T16:15:34.082Z,98881.74
2019-03-13T16:18:02.566Z,98879.56
2019-03-13T16:20:31.023Z,98898.59
2019-03-13T16:23:00.908Z,98886.01
2019-03-13T16:25:29.631Z,98892.75
2019-03-13T16:27:58.282Z,98895.23
2019-03-13T16:30:29.723Z,98900.10
2019-03-13T16:32:58.175Z,98901.85
2019-03-13T16:35:31.417Z,98892.91
2019-03-13T16:38:00.359Z,98887.13
2019-03-13T16:40:31.641Z,98893.40
2019-03-13T16:42:59.380Z,98888.13
2019-03-13T16:45:28.153Z,98893.30
2019-03-13T16:47:56.673Z,98901.30
2019-03-13T16:50:33.210Z,98894.84
2019-03-13T16:53:01.982Z,98898.56
2019-03-13T16:55:30.505Z,98897.47
2019-03-13T16:57:59.028Z,98905.34
2019-03-13T17:00:31.359Z,98905.19
2019-03-13T17:02:59.952Z,98909.35
2019-03-13T17:05:28.438Z,98908.78
2019-03-13T17:07:56.979Z,98906.69
2019-03-13T17:10:27.370Z,98907.47
2019-03-13T17:12:55.973Z,98900.11
2019-03-13T17:15:26.762Z,98900.50
2019-03-13T17:17:55.554Z,98898.05
2019-03-13T17:20:31.867Z,98901.20
2019-03-13T17:23:00.423Z,98904.97
2019-03-13T17:25:29.002Z,98898.08
2019-03-13T17:27:57.521Z,98897.44
2019-03-13T17:30:30.171Z,98896.96
2019-03-13T17:32:59.428Z,98896.78
2019-03-13T17:35:29.241Z,98893.60
2019-03-13T17:37:57.829Z,98893.73
2019-03-13T17:40:32.111Z,98895.58
2019-03-13T17:43:00.666Z,98893.55
2019-03-13T17:45:29.587Z,98897.30
2019-03-13T17:47:59.093Z,98892.35
2019-03-13T17:50:27.695Z,98891.77
2019-03-13T17:52:56.257Z,98891.22
2019-03-13T17:55:27.900Z,98890.03
2019-03-13T17:57:56.476Z,98885.52
2019-03-13T18:00:41.782Z,98884.95
2019-03-13T18:03:10.234Z,98883.91
2019-03-13T18:05:38.695Z,98884.95
2019-03-13T18:08:07.337Z,98881.94
2019-03-13T18:10:35.803Z,98884.82
2019-03-13T18:13:04.309Z,98886.27
2019-03-13T18:15:33.889Z,98890.59
2019-03-13T18:18:02.577Z,98884.03
2019-03-13T18:20:31.105Z,98885.28
2019-03-13T18:22:59.877Z,98885.28
2019-03-13T18:25:28.418Z,98882.66
2019-03-13T18:27:56.898Z,98881.67
2019-03-13T18:30:32.920Z,98875.96
2019-03-13T18:33:01.391Z,98879.84
2019-03-13T18:35:30.052Z,98869.33
2019-03-13T18:37:58.719Z,98870.97
2019-03-13T18:40:28.881Z,98872.05
2019-03-13T18:42:57.473Z,98865.75
2019-03-13T18:45:33.874Z,98871.92
2019-03-13T18:48:02.405Z,98873.63
2019-03-13T18:50:30.958Z,98868.38
2019-03-13T18:52:59.725Z,98869.83
2019-03-13T18:55:29.612Z,98869.95
2019-03-13T18:57:58.225Z,98872.48
2019-03-13T19:00:39.002Z,98873.14
2019-03-13T19:03:08.403Z,98871.73
2019-03-13T19:05:38.814Z,98872.37
2019-03-13T19:08:07.694Z,98872.58
2019-03-13T19:10:36.348Z,98871.95
2019-03-13T19:13:05.312Z,98874.03
2019-03-13T19:15:34.076Z,98874.91
2019-03-13T19:18:02.620Z,98874.77
2019-03-13T19:20:31.846Z,98875.23
2019-03-13T19:23:01.371Z,98880.33
2019-03-13T19:25:30.039Z,98872.67
2019-03-13T19:27:58.968Z,98869.47
2019-03-13T19:30:32.353Z,98867.95
2019-03-13T19:33:01.345Z,98867.37
2019-03-13T19:35:30.027Z,98871.02
2019-03-13T19:38:09.863Z,98862.88
2019-03-13T19:40:38.476Z,98862.60
2019-03-13T19:43:07.088Z,98863.12
2019-03-13T19:45:40.865Z,98867.20
2019-03-13T19:48:09.594Z,98856.72
2019-03-13T19:50:38.061Z,98860.65
2019-03-13T19:53:07.633Z,98853.64
2019-03-13T19:55:36.324Z,98854.00
2019-03-13T19:58:05.062Z,98850.47
2019-03-13T20:00:33.834Z,98845.97
2019-03-13T20:03:13.583Z,98844.14
2019-03-13T20:05:46.042Z,98837.86
2019-03-13T20:08:14.147Z,98828.97
2019-03-13T20:10:42.809Z,98828.42
2019-03-13T20:13:11.585Z,98835.36
2019-03-13T20:15:40.170Z,98835.70
2019-03-13T20:18:08.651Z,98828.30
2019-03-13T20:20:37.365Z,98833.93
2019-03-13T20:23:08.419Z,98830.39
2019-03-13T20:25:36.961Z,98830.00
2019-03-13T20:28:06.807Z,98823.78
2019-03-13T20:30:35.504Z,98825.55
2019-03-13T20:33:04.107Z,98824.23
2019-03-13T20:35:32.782Z,98811.66
2019-03-13T20:38:01.381Z,98816.11
2019-03-13T20:40:29.889Z,98814.27
2019-03-13T20:43:01.757Z,98803.27
2019-03-13T20:45:31.177Z,98808.39
2019-03-13T20:47:59.719Z,98806.16
2019-03-13T20:50:36.527Z,98800.92
2019-03-13T20:52:58.509Z,98804.39
2019-03-13T20:55:26.946Z,98798.36
2019-03-13T20:57:55.646Z,98795.80
2019-03-13T21:00:28.177Z,98797.36
2019-03-13T21:02:57.394Z,98787.95
2019-03-13T21:05:26.174Z,98792.40
2019-03-13T21:07:55.817Z,98787.28
2019-03-13T21:10:24.413Z,98790.30
2019-03-13T21:12:53.134Z,98787.16
2019-03-13T21:15:26.276Z,98786.77
2019-03-13T21:17:55.045Z,98779.81
2019-03-13T21:20:23.824Z,98772.87
2019-03-13T21:22:52.454Z,98768.75
2019-03-13T21:25:26.060Z,98765.84
2019-03-13T21:27:54.791Z,98766.05
2019-03-13T21:30:27.884Z,98763.70
2019-03-13T21:32:56.675Z,98757.48
2019-03-13T21:35:25.405Z,98762.56
2019-03-13T21:37:54.382Z,98752.95
2019-03-13T21:40:26.994Z,98754.70
2019-03-13T21:42:55.866Z,98754.66
2019-03-13T21:45:25.614Z,98750.34
2019-03-13T21:47:54.188Z,98743.36
2019-03-13T21:50:23.552Z,98749.45
2019-03-13T21:52:52.293Z,98736.44
2019-03-13T21:55:20.880Z,98740.73
2019-03-13T21:57:52.295Z,98740.73
2019-03-13T22:00:23.481Z,98730.34
2019-03-13T22:02:54.541Z,98737.75
2019-03-13T22:05:27.087Z,98730.41
2019-03-13T22:07:54.384Z,98734.86
2019-03-13T22:10:23.273Z,98740.11
2019-03-13T22:12:52.080Z,98732.24
2019-03-13T22:15:21.856Z,98733.16
2019-03-13T22:17:50.765Z,98727.92
2019-03-13T22:20:20.167Z,98730.54
2019-03-13T22:22:48.621Z,98724.91
2019-03-13T22:25:18.900Z,98724.51
2019-03-13T22:27:47.465Z,98723.59
2019-03-13T22:30:23.059Z,98721.03
2019-03-13T22:32:52.618Z,98714.15
2019-03-13T22:35:21.298Z,98715.13
2019-03-13T22:37:50.039Z,98714.80
2019-03-13T22:40:20.845Z,98716.27
2019-03-13T22:42:51.018Z,98716.34
2019-03-13T22:45:21.041Z,98713.26
2019-03-13T22:47:49.731Z,98710.30
2019-03-13T22:50:22.530Z,98708.60
2019-03-13T22:52:51.169Z,98702.57
2019-03-13T22:55:19.632Z,98702.63
2019-03-13T22:57:48.219Z,98705.37
2019-03-13T23:00:51.536Z,98701.97
2019-03-13T23:03:21.910Z,98693.72
2019-03-13T23:05:51.337Z,98695.70
2019-03-13T23:08:20.047Z,98701.41
2019-03-13T23:10:48.519Z,98701.28
2019-03-13T23:13:17.558Z,98704.75
2019-03-13T23:15:47.752Z,98698.59
2019-03-13T23:18:18.333Z,98698.05
2019-03-13T23:20:46.670Z,98700.53
2019-03-13T23:23:15.225Z,98696.48
2019-03-13T23:25:43.767Z,98696.34
2019-03-13T23:28:12.356Z,98700.67
2019-03-13T23:30:41.755Z,98699.82
2019-03-13T23:33:10.419Z,98696.28
2019-03-13T23:35:38.878Z,98691.50
2019-03-13T23:38:07.507Z,98692.42
2019-03-13T23:40:36.042Z,98687.58
2019-03-13T23:43:04.654Z,98691.11
2019-03-13T23:45:33.272Z,98683.64
2019-03-13T23:48:02.993Z,98685.73
2019-03-13T23:50:31.529Z,98685.22
2019-03-13T23:53:00.161Z,98679.42
2019-03-13T23:55:28.621Z,98675.95
2019-03-13T23:57:57.105Z,98678.90
